createdAt,value
2022-12-13T00:01:48.022Z,100825.81
2022-12-13T00:04:18.125Z,100822.41
2022-12-13T00:06:46.520Z,100818.00
2022-12-13T00:09:15.512Z,100810.44
2022-12-13T00:11:44.125Z,100810.69
2022-12-13T00:14:14.180Z,100814.91
2022-12-13T00:16:46.476Z,100814.16
2022-12-13T00:19:15.120Z,100817.56
2022-12-13T00:21:45.389Z,100814.28
2022-12-13T00:27:15.546Z,100806.41
2022-12-13T00:29:43.581Z,100808.16
2022-12-13T00:32:12.052Z,100807.34
2022-12-13T00:34:40.278Z,100804.34
2022-12-13T00:37:10.374Z,100805.22
2022-12-13T00:39:38.909Z,100806.28
2022-12-13T00:42:07.150Z,100794.84
2022-12-13T00:44:35.242Z,100795.72
2022-12-13T00:47:03.830Z,100791.50
2022-12-13T00:49:32.457Z,100793.84
2022-12-13T00:52:01.014Z,100790.81
2022-12-13T00:54:31.650Z,100784.75
2022-12-13T00:57:00.536Z,100782.16
2022-12-13T00:59:29.386Z,100780.13
2022-12-13T01:01:58.132Z,100782.63
2022-12-13T01:04:26.207Z,100778.56
2022-12-13T01:06:55.349Z,100769.84
2022-12-13T01:09:27.562Z,100771.22
2022-12-13T01:12:00.458Z,100768.09
2022-12-13T01:14:29.535Z,100775.91
2022-12-13T01:16:58.161Z,100776.72
2022-12-13T01:19:27.770Z,100777.81
2022-12-13T01:21:56.089Z,100782.03
2022-12-13T01:24:24.882Z,100780.34
2022-12-13T01:26:53.462Z,100769.22
2022-12-13T01:29:29.859Z,100775.00
2022-12-13T01:32:00.332Z,100768.84
2022-12-13T01:34:36.413Z,100766.00
2022-12-13T01:37:04.610Z,100766.06
2022-12-13T01:39:38.392Z,100768.31
2022-12-13T01:42:07.519Z,100775.56
2022-12-13T01:45:08.219Z,100767.91
2022-12-13T01:47:42.138Z,100765.59
2022-12-13T01:50:15.114Z,100766.50
2022-12-13T01:52:45.437Z,100765.44
2022-12-13T01:55:15.434Z,100770.72
2022-12-13T01:57:46.843Z,100779.88
2022-12-13T02:00:21.186Z,100766.38
2022-12-13T02:02:50.595Z,100762.84
2022-12-13T02:05:26.707Z,100781.13
2022-12-13T02:07:57.207Z,100774.19
2022-12-13T02:10:26.356Z,100770.84
2022-12-13T02:12:54.637Z,100783.06
2022-12-13T02:15:24.720Z,100787.28
2022-12-13T02:18:16.082Z,100789.22
2022-12-13T02:20:59.473Z,100792.66
2022-12-13T02:23:47.948Z,100791.06
2022-12-13T02:26:43.097Z,100788.72
2022-12-13T02:29:42.574Z,100779.31
2022-12-13T02:32:19.278Z,100782.03
2022-12-13T02:34:53.018Z,100776.97
2022-12-13T02:37:25.586Z,100765.91
2022-12-13T02:40:01.786Z,100766.88
2022-12-13T02:42:36.963Z,100755.81
2022-12-13T02:45:14.468Z,100754.13
2022-12-13T02:47:49.870Z,100752.31
2022-12-13T02:50:20.455Z,100745.91
2022-12-13T02:52:50.120Z,100750.44
2022-12-13T02:55:18.508Z,100751.06
2022-12-13T02:57:48.725Z,100762.72
2022-12-13T03:00:20.450Z,100755.88
2022-12-13T03:03:04.961Z,100761.97
2022-12-13T03:05:59.213Z,100760.22
2022-12-13T03:08:37.025Z,100753.66
2022-12-13T03:11:09.772Z,100753.03
2022-12-13T03:13:44.938Z,100751.06
2022-12-13T03:16:26.171Z,100767.59
2022-12-13T03:18:59.137Z,100756.03
2022-12-13T03:21:27.464Z,100757.44
2022-12-13T03:23:56.082Z,100747.84
2022-12-13T03:26:27.760Z,100752.00
2022-12-13T03:28:56.045Z,100752.47
2022-12-13T03:31:24.299Z,100749.19
2022-12-13T03:33:52.422Z,100742.94
2022-12-13T03:36:23.059Z,100749.75
2022-12-13T03:38:53.553Z,100746.97
2022-12-13T03:41:31.302Z,100749.88
2022-12-13T03:44:00.445Z,100745.63
2022-12-13T03:46:29.066Z,100731.84
2022-12-13T03:48:57.489Z,100730.94
2022-12-13T03:51:28.322Z,100730.44
2022-12-13T03:53:57.210Z,100722.13
2022-12-13T03:56:26.508Z,100729.75
2022-12-13T03:58:55.053Z,100722.34
2022-12-13T04:01:23.983Z,100738.63
2022-12-13T04:03:52.444Z,100724.03
2022-12-13T04:06:22.725Z,100742.56
2022-12-13T04:08:56.335Z,100734.09
2022-12-13T04:11:43.411Z,100732.59
2022-12-13T04:14:22.894Z,100735.63
2022-12-13T04:16:52.707Z,100740.19
2022-12-13T04:19:23.252Z,100744.06
2022-12-13T04:21:52.708Z,100742.19
2022-12-13T04:24:31.372Z,100747.25
2022-12-13T04:27:01.049Z,100750.78
2022-12-13T04:29:34.322Z,100742.75
2022-12-13T04:32:04.211Z,100742.19
2022-12-13T04:34:37.335Z,100743.84
2022-12-13T04:37:06.134Z,100741.13
2022-12-13T04:39:35.618Z,100742.97
2022-12-13T04:42:05.937Z,100742.06
2022-12-13T04:44:37.086Z,100737.00
2022-12-13T04:47:06.154Z,100738.41
2022-12-13T04:49:35.134Z,100742.50
2022-12-13T04:52:03.811Z,100743.16
2022-12-13T04:54:36.149Z,100734.84
2022-12-13T04:57:07.979Z,100735.56
2022-12-13T04:59:36.093Z,100739.38
2022-12-13T05:02:04.862Z,100735.78
2022-12-13T05:04:33.516Z,100732.06
2022-12-13T05:07:01.647Z,100724.63
2022-12-13T05:09:29.652Z,100720.97
2022-12-13T05:12:00.976Z,100732.47
2022-12-13T05:14:31.721Z,100732.34
2022-12-13T05:17:00.065Z,100721.50
2022-12-13T05:19:31.616Z,100714.75
2022-12-13T05:22:02.071Z,100719.50
2022-12-13T05:24:31.845Z,100717.66
2022-12-13T05:27:02.527Z,100720.13
2022-12-13T05:29:56.314Z,100714.00
2022-12-13T05:32:42.772Z,100703.59
2022-12-13T05:35:13.383Z,100707.63
2022-12-13T05:37:41.777Z,100712.28
2022-12-13T05:40:11.119Z,100712.81
2022-12-13T05:42:40.276Z,100709.53
2022-12-13T05:45:19.012Z,100705.06
2022-12-13T05:47:48.224Z,100706.34
2022-12-13T05:50:19.359Z,100704.09
2022-12-13T05:52:47.980Z,100703.97
2022-12-13T05:55:16.488Z,100713.44
2022-12-13T05:57:50.501Z,100712.25
2022-12-13T06:00:30.455Z,100716.53
2022-12-13T06:03:00.467Z,100709.09
2022-12-13T06:05:30.163Z,100713.53
2022-12-13T06:07:59.259Z,100708.16
2022-12-13T06:10:34.852Z,100714.09
2022-12-13T06:13:21.071Z,100720.75
2022-12-13T06:15:52.058Z,100716.84
2022-12-13T06:18:31.617Z,100711.13
2022-12-13T06:21:01.513Z,100715.44
2022-12-13T06:23:32.424Z,100711.72
2022-12-13T06:26:00.589Z,100721.50
2022-12-13T06:28:28.875Z,100714.97
2022-12-13T06:31:01.239Z,100715.59
2022-12-13T06:33:30.045Z,100719.50
2022-12-13T06:35:59.192Z,100711.56
2022-12-13T06:38:32.014Z,100719.56
2022-12-13T06:41:18.440Z,100714.56
2022-12-13T06:43:48.360Z,100718.59
2022-12-13T06:46:18.757Z,100721.16
2022-12-13T06:48:46.741Z,100722.88
2022-12-13T06:51:22.427Z,100719.31
2022-12-13T06:53:52.123Z,100720.63
2022-12-13T06:56:20.681Z,100722.25
2022-12-13T06:58:48.616Z,100725.31
2022-12-13T07:01:24.548Z,100723.66
2022-12-13T07:03:55.316Z,100728.13
2022-12-13T07:06:25.057Z,100732.94
2022-12-13T07:08:55.493Z,100743.69
2022-12-13T07:11:25.160Z,100751.28
2022-12-13T07:13:53.931Z,100750.66
2022-12-13T07:16:24.775Z,100746.78
2022-12-13T07:19:01.174Z,100745.88
2022-12-13T07:21:30.626Z,100745.16
2022-12-13T07:23:58.738Z,100743.28
2022-12-13T07:26:27.335Z,100749.56
2022-12-13T07:28:55.798Z,100750.47
2022-12-13T07:31:28.747Z,100746.16
2022-12-13T07:33:58.505Z,100758.34
2022-12-13T07:36:26.855Z,100752.81
2022-12-13T07:38:56.672Z,100750.34
2022-12-13T07:41:26.674Z,100754.94
2022-12-13T07:43:57.283Z,100757.19
2022-12-13T07:46:33.500Z,100756.50
2022-12-13T07:49:03.012Z,100757.19
2022-12-13T07:51:31.355Z,100760.97
2022-12-13T07:53:59.709Z,100758.72
2022-12-13T07:56:27.917Z,100752.28
2022-12-13T07:58:56.117Z,100751.66
2022-12-13T08:01:24.548Z,100746.25
2022-12-13T08:03:54.636Z,100757.47
2022-12-13T08:06:23.013Z,100762.94
2022-12-13T08:08:51.899Z,100761.63
2022-12-13T08:11:22.015Z,100765.72
2022-12-13T08:13:50.155Z,100767.50
2022-12-13T08:16:28.024Z,100762.88
2022-12-13T08:19:02.154Z,100762.50
2022-12-13T08:24:24.865Z,100762.13
2022-12-13T08:26:55.731Z,100766.88
2022-12-13T08:29:34.838Z,100764.00
2022-12-13T08:32:04.419Z,100763.38
2022-12-13T08:34:33.982Z,100770.31
2022-12-13T08:37:03.845Z,100764.13
2022-12-13T08:39:33.958Z,100761.97
2022-12-13T08:42:16.388Z,100761.97
2022-12-13T08:44:47.953Z,100768.28
2022-12-13T08:47:22.875Z,100758.69
2022-12-13T08:49:56.125Z,100761.53
2022-12-13T08:52:30.570Z,100757.06
2022-12-13T08:54:58.813Z,100758.41
2022-12-13T08:57:27.503Z,100758.94
2022-12-13T08:59:56.298Z,100752.03
2022-12-13T09:02:24.710Z,100752.84
2022-12-13T09:04:57.039Z,100762.94
2022-12-13T09:07:29.718Z,100760.13
2022-12-13T09:09:58.411Z,100758.25
2022-12-13T09:12:35.914Z,100758.50
2022-12-13T09:15:22.568Z,100761.56
2022-12-13T09:17:53.010Z,100766.75
2022-12-13T09:20:29.684Z,100760.03
2022-12-13T09:23:01.936Z,100761.84
2022-12-13T09:25:37.378Z,100768.25
2022-12-13T09:28:10.068Z,100770.56
2022-12-13T09:30:39.139Z,100761.91
2022-12-13T09:33:28.033Z,100769.69
2022-12-13T09:35:57.917Z,100764.63
2022-12-13T09:38:26.236Z,100771.97
2022-12-13T09:40:58.588Z,100776.84
2022-12-13T09:43:33.518Z,100776.19
2022-12-13T09:46:24.391Z,100773.88
2022-12-13T09:49:01.821Z,100769.13
2022-12-13T09:51:41.181Z,100751.56
2022-12-13T09:54:23.873Z,100749.09
2022-12-13T09:56:57.765Z,100756.56
2022-12-13T09:59:33.688Z,100759.31
2022-12-13T10:02:13.957Z,100760.88
2022-12-13T10:04:43.433Z,100754.59
2022-12-13T10:07:21.031Z,100747.97
2022-12-13T10:09:54.699Z,100755.47
2022-12-13T10:12:23.816Z,100755.81
2022-12-13T10:14:58.553Z,100749.47
2022-12-13T10:17:38.065Z,100743.63
2022-12-13T10:20:10.254Z,100745.66
2022-12-13T10:22:39.731Z,100745.50
2022-12-13T10:25:09.745Z,100744.03
2022-12-13T10:27:40.497Z,100748.69
2022-12-13T10:30:12.071Z,100743.22
2022-12-13T10:32:55.148Z,100734.78
2022-12-13T10:35:26.704Z,100726.00
2022-12-13T10:37:57.867Z,100733.94
2022-12-13T10:40:34.200Z,100741.09
2022-12-13T10:43:13.387Z,100735.09
2022-12-13T10:45:43.014Z,100734.47
2022-12-13T10:48:22.368Z,100735.06
2022-12-13T10:51:04.039Z,100738.72
2022-12-13T10:53:36.032Z,100732.28
2022-12-13T10:56:05.145Z,100728.63
2022-12-13T10:58:40.489Z,100725.84
2022-12-13T11:01:21.594Z,100711.09
2022-12-13T11:04:03.541Z,100714.28
2022-12-13T11:06:43.938Z,100714.19
2022-12-13T11:09:22.960Z,100709.38
2022-12-13T11:11:58.267Z,100705.13
2022-12-13T11:14:41.949Z,100703.72
2022-12-13T11:17:34.322Z,100705.66
2022-12-13T11:20:10.452Z,100698.91
2022-12-13T11:22:39.942Z,100692.75
2022-12-13T11:25:18.566Z,100688.13
2022-12-13T11:27:59.578Z,100684.38
2022-12-13T11:30:37.501Z,100684.88
2022-12-13T11:33:28.865Z,100686.09
2022-12-13T11:36:09.709Z,100680.81
2022-12-13T11:38:57.813Z,100673.41
2022-12-13T11:41:31.116Z,100673.41
2022-12-13T11:44:05.303Z,100678.00
2022-12-13T11:46:39.898Z,100669.38
2022-12-13T11:49:16.524Z,100672.56
2022-12-13T11:51:48.123Z,100670.22
2022-12-13T11:54:26.393Z,100667.81
2022-12-13T11:57:00.205Z,100670.09
2022-12-13T11:59:40.728Z,100668.84
2022-12-13T12:02:25.383Z,100660.84
2022-12-13T12:05:00.417Z,100666.28
2022-12-13T12:08:12.727Z,100657.53
2022-12-13T12:17:42.279Z,100649.88
2022-12-13T12:20:23.452Z,100635.78
2022-12-13T12:23:02.457Z,100633.25
2022-12-13T12:25:42.466Z,100630.56
2022-12-13T12:28:19.190Z,100626.22
2022-12-13T12:30:58.891Z,100622.75
2022-12-13T12:33:38.138Z,100619.38
2022-12-13T12:36:30.901Z,100623.16
2022-12-13T12:39:26.554Z,100618.47
2022-12-13T12:42:12.497Z,100621.63
2022-12-13T12:44:50.908Z,100614.84
2022-12-13T12:48:07.207Z,100620.91
2022-12-13T12:53:55.835Z,100624.81
2022-12-13T12:56:41.648Z,100619.25
2022-12-13T12:59:19.829Z,100624.28
2022-12-13T13:01:58.354Z,100621.75
2022-12-13T13:04:36.012Z,100614.66
2022-12-13T13:07:23.079Z,100610.31
2022-12-13T13:09:54.716Z,100608.91
2022-12-13T13:12:30.200Z,100605.22
2022-12-13T13:15:00.748Z,100596.31
2022-12-13T13:17:47.675Z,100603.34
2022-12-13T13:20:24.397Z,100607.81
2022-12-13T13:23:17.442Z,100612.53
2022-12-13T13:26:16.060Z,100614.91
2022-12-13T13:28:35.360Z,100613.06
2022-12-13T13:31:06.374Z,100600.13
2022-12-13T13:33:46.340Z,100595.19
2022-12-13T13:36:46.532Z,100603.72
2022-12-13T13:39:19.924Z,100607.91
2022-12-13T13:41:57.322Z,100605.31
2022-12-13T13:44:55.308Z,100611.28
2022-12-13T13:47:39.108Z,100609.84
2022-12-13T13:50:44.714Z,100606.28
2022-12-13T13:54:00.547Z,100606.84
2022-12-13T13:56:45.102Z,100607.91
2022-12-13T13:59:54.905Z,100611.69
2022-12-13T14:03:02.086Z,100624.22
2022-12-13T14:06:00.413Z,100620.88
2022-12-13T14:08:42.435Z,100626.25
2022-12-13T14:11:35.667Z,100612.44
2022-12-13T14:14:38.879Z,100619.19
2022-12-13T14:17:45.740Z,100607.50
2022-12-13T14:20:46.442Z,100618.47
2022-12-13T14:23:26.888Z,100618.44
2022-12-13T14:26:08.740Z,100613.13
2022-12-13T14:28:48.614Z,100604.47
2022-12-13T14:31:23.475Z,100607.72
2022-12-13T14:33:56.689Z,100603.31
2022-12-13T14:36:37.497Z,100608.56
2022-12-13T14:39:24.819Z,100616.13
2022-12-13T14:41:57.752Z,100620.31
2022-12-13T14:44:28.101Z,100625.56
2022-12-13T14:47:01.378Z,100627.16
2022-12-13T14:49:33.033Z,100635.91
2022-12-13T14:52:07.074Z,100628.13
2022-12-13T14:54:42.526Z,100638.19
2022-12-13T14:57:17.587Z,100638.19
2022-12-13T14:59:58.477Z,100640.84
2022-12-13T15:12:15.388Z,100626.19
2022-12-13T15:18:53.485Z,100621.94
2022-12-13T15:21:28.559Z,100625.91
2022-12-13T15:24:07.381Z,100618.31
2022-12-13T15:26:43.230Z,100617.66
2022-12-13T15:29:15.816Z,100611.38
2022-12-13T15:31:48.680Z,100609.63
2022-12-13T15:34:42.299Z,100616.38
2022-12-13T15:37:28.104Z,100615.59
2022-12-13T15:43:00.220Z,100618.94
2022-12-13T15:45:36.391Z,100621.59
2022-12-13T15:48:05.914Z,100618.16
2022-12-13T15:50:37.102Z,100620.72
2022-12-13T15:53:19.062Z,100610.94
2022-12-13T15:55:47.853Z,100613.53
2022-12-13T15:58:26.945Z,100603.41
2022-12-13T16:00:57.270Z,100607.59
2022-12-13T16:03:29.790Z,100600.47
2022-12-13T16:05:59.079Z,100594.34
2022-12-13T16:08:31.973Z,100596.84
2022-12-13T16:11:01.797Z,100596.59
2022-12-13T16:13:33.640Z,100594.16
2022-12-13T16:16:09.379Z,100589.66
2022-12-13T16:18:46.570Z,100585.19
2022-12-13T16:21:31.573Z,100586.75
2022-12-13T16:24:10.003Z,100579.78
2022-12-13T16:30:00.161Z,100578.75
2022-12-13T16:32:44.467Z,100575.22
2022-12-13T16:35:23.210Z,100575.72
2022-12-13T16:37:53.730Z,100573.34
2022-12-13T16:40:32.451Z,100575.03
2022-12-13T16:43:04.761Z,100564.75
2022-12-13T16:45:43.624Z,100566.25
2022-12-13T16:48:18.006Z,100573.03
2022-12-13T16:50:48.341Z,100572.00
2022-12-13T16:53:26.281Z,100583.56
2022-12-13T16:55:58.495Z,100578.22
2022-12-13T16:58:28.118Z,100578.28
2022-12-13T17:00:58.833Z,100576.63
2022-12-13T17:03:28.464Z,100566.25
2022-12-13T17:05:58.977Z,100566.97
2022-12-13T17:08:27.975Z,100573.19
2022-12-13T17:10:58.385Z,100566.00
2022-12-13T17:13:27.468Z,100562.44
2022-12-13T17:15:59.384Z,100567.53
2022-12-13T17:18:29.110Z,100562.34
2022-12-13T17:20:58.504Z,100569.13
2022-12-13T17:23:27.829Z,100558.75
2022-12-13T17:25:58.631Z,100563.00
2022-12-13T17:28:27.254Z,100562.66
2022-12-13T17:30:58.078Z,100559.94
2022-12-13T17:33:29.941Z,100552.28
2022-12-13T17:35:59.197Z,100555.84
2022-12-13T17:38:28.473Z,100553.44
2022-12-13T17:41:02.609Z,100552.84
2022-12-13T17:43:37.444Z,100557.88
2022-12-13T17:46:13.319Z,100548.34
2022-12-13T17:48:45.774Z,100547.78
2022-12-13T17:51:16.254Z,100549.81
2022-12-13T17:53:48.528Z,100555.47
2022-12-13T17:56:19.855Z,100552.50
2022-12-13T17:58:49.045Z,100556.66
2022-12-13T18:01:21.340Z,100563.16
2022-12-13T18:03:50.482Z,100560.41
2022-12-13T18:06:21.605Z,100566.28
2022-12-13T18:08:54.566Z,100558.56
2022-12-13T18:11:34.067Z,100560.31
2022-12-13T18:14:04.387Z,100547.09
2022-12-13T18:16:37.560Z,100550.56
2022-12-13T18:19:08.694Z,100547.09
2022-12-13T18:21:38.417Z,100550.66
2022-12-13T18:24:08.024Z,100547.50
2022-12-13T18:26:39.230Z,100546.16
2022-12-13T18:29:07.851Z,100551.81
2022-12-13T18:31:39.651Z,100544.59
2022-12-13T18:34:09.356Z,100546.97
2022-12-13T18:36:47.341Z,100542.91
2022-12-13T18:39:17.414Z,100555.34
2022-12-13T18:41:50.965Z,100548.38
2022-12-13T18:44:20.329Z,100550.16
2022-12-13T18:47:09.046Z,100544.19
2022-12-13T18:49:40.766Z,100542.13
2022-12-13T18:52:12.016Z,100535.84
2022-12-13T18:54:54.410Z,100541.03
2022-12-13T18:57:28.524Z,100541.41
2022-12-13T19:00:02.509Z,100538.50
2022-12-13T19:02:34.624Z,100529.38
2022-12-13T19:05:04.499Z,100534.59
2022-12-13T19:07:37.290Z,100533.69
2022-12-13T19:10:07.234Z,100529.31
2022-12-13T19:12:43.288Z,100527.13
2022-12-13T19:16:01.220Z,100527.91
2022-12-13T19:18:40.677Z,100523.03
2022-12-13T19:21:22.055Z,100526.03
2022-12-13T19:27:10.493Z,100520.66
2022-12-13T19:33:39.557Z,100511.84
2022-12-13T19:42:28.260Z,100511.75
2022-12-13T19:52:01.772Z,100501.09
2022-12-13T19:54:37.502Z,100507.91
2022-12-13T19:57:20.497Z,100498.88
2022-12-13T20:00:12.160Z,100496.09
2022-12-13T20:02:46.077Z,100492.91
2022-12-13T20:12:41.165Z,100474.38
2022-12-13T20:15:41.603Z,100482.34
2022-12-13T20:39:20.228Z,100470.06
2022-12-13T20:41:48.816Z,100456.44
2022-12-13T20:50:23.380Z,100443.00
2022-12-13T20:56:13.152Z,100445.28
2022-12-13T20:58:50.540Z,100447.03
2022-12-13T21:01:22.238Z,100437.88
2022-12-13T21:03:53.246Z,100435.16
2022-12-13T21:06:31.307Z,100450.66
2022-12-13T21:11:52.055Z,100440.09
2022-12-13T21:14:39.221Z,100435.69
2022-12-13T21:17:11.715Z,100426.69
2022-12-13T21:19:44.567Z,100429.31
2022-12-13T21:22:22.458Z,100423.97
2022-12-13T21:27:35.161Z,100417.28
2022-12-13T21:33:14.676Z,100406.88
2022-12-13T21:35:44.819Z,100408.53
2022-12-13T21:38:13.144Z,100407.19
2022-12-13T21:40:45.977Z,100399.41
2022-12-13T21:43:17.776Z,100396.84
2022-12-13T21:45:46.338Z,100400.88
2022-12-13T21:48:15.947Z,100394.63
2022-12-13T21:50:55.428Z,100397.28
2022-12-13T21:53:34.033Z,100402.50
2022-12-13T21:56:20.262Z,100405.97
2022-12-13T21:59:07.831Z,100400.97
2022-12-13T22:01:50.086Z,100399.94
2022-12-13T22:04:19.233Z,100396.91
2022-12-13T22:06:49.821Z,100399.00
2022-12-13T22:09:17.976Z,100394.53
2022-12-13T22:11:45.946Z,100394.41
2022-12-13T22:14:15.455Z,100387.56
2022-12-13T22:16:43.378Z,100383.97
2022-12-13T22:19:13.764Z,100384.38
2022-12-13T22:21:42.110Z,100386.06
2022-12-13T22:24:10.933Z,100384.03
2022-12-13T22:26:40.554Z,100384.84
2022-12-13T22:29:08.986Z,100388.06
2022-12-13T22:31:38.268Z,100380.00
2022-12-13T22:34:06.168Z,100374.22
2022-12-13T22:36:33.980Z,100378.31
2022-12-13T22:39:02.039Z,100380.22
2022-12-13T22:41:29.968Z,100378.94
2022-12-13T22:43:58.025Z,100373.69
2022-12-13T22:46:26.546Z,100374.38
2022-12-13T22:48:55.855Z,100369.19
2022-12-13T22:51:23.659Z,100366.78
2022-12-13T22:53:52.317Z,100362.34
2022-12-13T22:56:22.050Z,100363.88
2022-12-13T22:58:55.001Z,100364.16
2022-12-13T23:01:26.777Z,100360.53
2022-12-13T23:03:56.817Z,100357.16
2022-12-13T23:06:26.713Z,100354.72
2022-12-13T23:08:56.435Z,100350.84
2022-12-13T23:11:42.688Z,100354.63
2022-12-13T23:14:12.309Z,100348.50
2022-12-13T23:16:40.699Z,100339.81
2022-12-13T23:19:40.565Z,100340.78
2022-12-13T23:22:00.427Z,100337.22
2022-12-13T23:24:28.447Z,100334.66
2022-12-13T23:26:56.264Z,100334.84
2022-12-13T23:29:24.583Z,100331.44
2022-12-13T23:31:52.390Z,100325.16
2022-12-13T23:34:21.918Z,100325.34
2022-12-13T23:36:49.768Z,100331.25
2022-12-13T23:39:17.803Z,100324.47
2022-12-13T23:42:07.868Z,100321.16
2022-12-13T23:44:35.873Z,100322.03
2022-12-13T23:47:05.976Z,100312.59
2022-12-13T23:49:37.734Z,100309.25
2022-12-13T23:52:05.803Z,100303.94
2022-12-13T23:54:33.669Z,100308.13
2022-12-13T23:57:01.519Z,100298.72
2022-12-13T23:59:29.417Z,100300.59
